Timeline UpdatesTrip UpdatesNews PostsPvt Posts♥♥Travel TipsAdmin PostsConv PostsFollowed PostsChat RequestsBlog PostsPNR Posts

Disclaimer
Search
 
 
Thu Oct 23, 2014 22:01:19 ISTHomeTrainsΣChainsAtlasPNRForumGalleryNewsFAQTripsMembersLoginFeedback
No Recent News for this Train
Other Trains in the News **new
Latest...
...
Wed Nov 20, 2013 (01:17AM)
⇐ Return Journey: Train# 12861

12722-Slip/Dakshin Link SF Express

Time-Table HAS CHANGED.
Sep 30 (6:33AM)
Change Departure Station:
Change Arrival Station:
Post a Train Travel TipPost a Train Travel Tip **new
Post a Comment/Question/Picture/VideoPost a Comment/Question/Picture/Video
Pantry/Catering
???
Loco/Rake Reversals
BZA/Vijayawada Junction (10);
RSA - Rake Sharing
Rake/Coach Composition
from KZJ to ; BZA is; LOCO-SLR-S10-S9-S8-A2-B2-GEN-GEN-GEN-GEN-GEN-SLR; COACH COMPOSITION for Link Dakshin Express (12722-slip&12862) from BZA to VSKP is; LOCO-SLR-GEN-GEN-GEN-GEN-GEN-B2-A2-S8-S9-S10-SLR.; author-suraj.
Loco
News    PNR    Forum    Time-Table    Availability    Fare Chart    Map    Arr/Dep History    Trips    Gallery    ΣChains    X/O    Timeline    
Travel Time: 31h 45m    48 halts    Distance: 1745 km    Avg Speed: 54 km/hr
Type: SuperFast
Zone: ECoR/East Coast
Departs @ 23:00 (Avg on time)
Platform# 7
SMTWTFS
Delhi Hazrat Nizamuddin/NZM 
Arrives @ 06:45 +2 nights
Platform# ???
SMTWTFS
Vijayawada Junction/BZA 

48 halts. 233 intermediate Stations between Delhi Hazrat Nizamuddin and Vijayawada Junction

Show ALL intermediate Stations  Show Old Time-Table

#TrkCodeStation NameX/OArrivesAvgDepartsAvgHaltPFDay#KmSpeedElevZoneAddress
1/==/NZMDelhi Hazrat Nizamuddin (7)»  -23:00+0710.069209mNRNew Delhi 110013, Delhi NCT
2/==/FDBFaridabad (4)  23:18+523:20+52m3120.844206mNRold Faridabad, Haryana
3/==/BVHBallabgarh (5)  23:31+423:33+42m--128.981203mNRFaridabad, Haryana
4/==/KSVKosi Kalan (3)O  00:20+1500:22+162m2292.575189mNCRKosi Kalan, Uttar Pradesh
5/==/MTJMathura Junction (10)X  00:55+1901:00+195m12134.046179mNCRMathura, Uttar Pradesh
6/==/AGCAgra Cantt. (6)X  02:10+202:15+25m12187.690174mNCRAgra, Uttar Pradesh
7/==/MRAMorena (3)  03:08+2403:10+242m12267.175176mNCRMorena, Madhya Pradesh
8/==/GWLGwalior Junction (4)X  03:41+2703:46+265m12305.679214mNCRGwalior, Madhya Pradesh
9/==/DAADatia (2)X  04:49 04:41+3504:51 04:43+362m--2378.341264mNCRDatia, Madhya Pradesh
10/==/JHSJhansi Junction (7)X  05:20+3405:28 05:30+378 10m--2403.467259mNCRJhansi, Uttar Pradesh
11/==/BABBabina (3)  05:38 05:53+4505:40 05:55+452m12428.986285mNCRBabina, Uttar Pradesh
12/==/LARLalitpur (3)X  06:53 06:40+3906:55 06:42+412m12493.752373mNCRLalitpur, Uttar Pradesh
13/==/BINABina Junction (5)X  07:55+2908:00+295m22556.669414mWCRJn Pt - KATNI/GUNA/ BPL/JHS, Madhya Pradesh
14/==/MABAMandi Bamora (3)X  08:15+3308:17+342m22573.871413mWCRState Highway 14, Madhya Pradesh
15/==/BAQGanj Basoda (4)X  08:41+3208:43+322m--2602.391 WCRVidisha, Madhya Pradesh
16/==/BHSVidisha (3)  09:09+3609:11+372m22641.754 WCRVidisha, Madhya Pradesh
17/==/BPLBhopal Junction (6)XO  10:15 10:10+2910:20 10:15+345m12695.225497mWCRBhopal, Madhya Pradesh
18/==/HBJBhopal HabibGanj (5)  10:30+3310:32+332m--2701.470496mWCRHabibGanj, Madhya Pradesh
19/==/HBDHoshangabad (2)XO  11:30+4211:32+422m--2768.825308mWCRHoshangabad, Madhya Pradesh
20/==/ETItarsi Junction (7)  12:20 12:15+1912:25 12:20+225m32786.967329mWCRItarsi 461111, Madhya Pradesh
21/==/GDYAGhoradongri (3)X  13:23+4213:25+422m--2857.345 CRBetul, Madhya Pradesh
22/==/BZUBetul (3)X  14:13+4414:15+452m--2893.253644mCRBetul, Madhya Pradesh
23/==/AMLAAmla Junction (5)X  14:41+4014:43+402m--2916.198733mCRAmla Distt. Betul, Madhya Pradesh
24/==/MTYMultai (2)X  14:57+4414:59+442m--2939.053762mCRMultai, Madhya Pradesh
25/==/PARPandhurna (2)X  15:45+4715:47+472m--2979.785481mCRDistt: Chhindwara, Madhya Pradesh
26/==/NRKRNarkher Junction (4)  16:00+4916:02+492m--2998.175411mCRDistrict Nagpur, Maharashtra
27/==/KATLKatol (2)X  16:22+4916:24+492m--21023.251 CRKatol. District Nagpur, Maharashtra
28/==/NGPNagpur Junction (8)X  17:35+3517:45+3810m221084.183314mCRNagpur 440001, Maharashtra
29/==/SNISindi (2)X  18:19+4918:21+492m--21131.059258mCRWardha, Maharashtra
30/==/SEGMSewagram Junction (5)  18:51+4818:53+492m--21160.371279mCRWardha, Maharashtra
31/==/HGTHinganghat (3)X  19:21+4619:23+462m--21193.478228mCRHinganghat, Maharashtra
32/==/WRRWarora (2)  19:53+4619:55+462m--21232.570214mCRWarora, Maharashtra
33/==/BUXBhandak (5)  20:14+4520:16+452m--21254.649207mCRChandrapur, Maharashtra
34/==/CDChandrapur Maharashtra (3)  20:46+3820:48+392m--21278.913194mCRChandrapur 442401, Maharashtra
35/==/BPQBalharshah Junction (5)X  21:50+1322:00+1610m321292.787188mCRBallarpur. Ph : 07172 - 240341, Maharashtra
36/==/SKZRSirpur Kaghaznagar (3)X  22:48+3522:50+352m221362.4100181mSCRAdilabad Dist., Telangana
37/==/BPABellampalli (3)  23:13+4223:15+412m221400.979205mSCRTel:.08735 223298, Telangana
38/==/MCIManchiryal (3)  23:30+4723:32+462m221420.792159mSCRAdilabad Dist., Telangana
39/==/RDMRamagundam (3)  23:41+5123:43+512m221434.5105170mSCRKarimnagar Dist. Ph : 08728 - 255237, Telangana
40/==/PDPLPeddapalli Junction (2)  23:53+1:0023:55+592m221452.085228mSCRKarimnagar Dist., Telangana
41/==/JMKTJamikunta (2)X  00:23+1:0400:25+1:042m231491.539236mSCRKarimnagar Dist., Telangana
42/==/KZJKazipet Junction (3)XO  01:20+1:0402:30+2070m--31527.147292mSCRWarangal Dist., Telangana
43/==/WLWarangal (3)X  02:43-02:45-2m131537.281271mSCRWarangal., Telangana
44/==/NKDNekonda (2)  03:07-03:09-2m131567.084236mSCRWarangal Dist., Telangana
45/==/KDMKesamudram (2)X  03:20-03:22-2m131582.4149223mSCRWarangal Dist., Telangana
46/==/MABDMahbubabad (2)X  03:28-03:30-2m131597.452200mSCRWarangal Dist., Telangana
47/==/DKJDornakal Junction (3)X  03:58-04:00-2m231621.8115153mSCRWarangal District, Telangana
48/==/KMTKhammam (2)  04:12-04:14-2m131644.893118mSCRKhammam 507001, Telangana
49/==/MDRMadhira (2)X  04:43-04:45-2m131689.62861mSCRKhammam Dist., Telangana
50/==/BZAVijayawada Junction (10)•06:45-07:05-20m--31745.27924mSCRVijayawada 520001, Andhra Pradesh
51/==/EEEluru (3)X  07:50-07:52-2m--31804.69219mSCREluru Ph.no. 08812 226401., Andhra Pradesh
52/==/TDDTadepalligudem (3)  08:23-08:25-2m231852.37518mSCRTadepalligudem, Andhra Pradesh
53/==/NDDNidadavolu Junction (3)X  08:41-08:43-2m--31872.32720mSCRNidadavolu jtn ph.no. 08813-210325, Andhra Pradesh
54/==/RJYRajahmundry (3)X  09:32-09:34-2m331894.57223mSCRRajahmundry ph.no. 0883-2420541, Andhra Pradesh
55/==/SLOSamalkot Junction (3)X  10:16-10:18-2m131944.78818mSCRSamalkot, Andhra Pradesh
56/==/ANVAnnavaram (3)  10:43-10:45-2m331981.57727mSCREast Godavari District, Andhra Pradesh
57/==/TUNITuni (2)X  10:58-11:00-2m231998.25624mSCRTuni ph.no. 08854-252172, Andhra Pradesh
58/==/AKPAnakapalle (3)O  12:08-12:10-2m--32062.02830mSCRAnakapalle ph.no . 08924-221698, Andhra Pradesh
59/==/DVDDuvvada (4)X  12:43 12:44-12:45 12:46-2m--32077.92246mECoRVishakhapatnam District, Andhra Pradesh
60/==/VSKPVisakhapatnam Junction (8)  13:30--632094.3-11mECoRVishakhapatnam 530001, Andhra Pradesh
Scroll to Top
Scroll to Bottom